Time;durP1;ratioP1;P1;durP2;ratioP2;P2;SDS_P1;SDS_P2;PMS_P1;PMS_P2;Temp;Humidity;BMP_temperature;BMP_pressure;BME280_temperature;BME280_humidity;BME280_pressure;Samples;Min_cycle;Max_cycle;Signal;HPM_P1;HPM_P2
2022/02/04 00:07:55;;;;;;;17.47;12.87;;;;;;;;;;5008715;28;20233;-58
2022/02/04 00:21:27;;;;;;;13.87;11.33;;;;;;;;;;5037317;28;20646;-59
2022/02/04 00:23:54;;;;;;;14.00;11.97;;;;;;;;;;5024675;28;20373;-59
2022/02/04 00:26:28;;;;;;;14.50;11.57;;;;;;;;;;5020050;28;20178;-59
2022/02/04 00:29:15;;;;;;;13.77;11.27;;;;;;;;;;5034671;28;20205;-59
2022/02/04 00:31:47;;;;;;;13.83;11.77;;;;;;;;;;5008957;28;20204;-60
2022/02/04 00:34:24;;;;;;;15.37;11.33;;;;;;;;;;4998958;28;20206;-60
2022/02/04 00:37:08;;;;;;;13.77;10.80;;;;;;;;;;5007969;28;20767;-60
2022/02/04 00:39:43;;;;;;;14.80;11.93;;;;;;;;;;5017709;28;20193;-59
2022/02/04 00:42:11;;;;;;;13.17;11.57;;;;;;;;;;5025752;28;20181;-59
2022/02/04 00:44:39;;;;;;;14.43;11.77;;;;;;;;;;5039700;28;20185;-60
2022/02/04 00:47:13;;;;;;;14.27;11.93;;;;;;;;;;5027042;28;20181;-59
2022/02/04 00:50:29;;;;;;;15.30;12.00;;;;;;;;;;5006238;28;20214;-59
2022/02/04 00:52:51;;;;;;;12.93;10.97;;;;;;;;;;5016317;28;20186;-59
2022/02/04 00:55:31;;;;;;;12.53;11.23;;;;;;;;;;5020770;28;20189;-59
2022/02/04 01:28:24;;;;;;;15.83;12.40;;;;;;;;;;5027184;28;20185;-59
2022/02/04 01:30:53;;;;;;;16.83;12.73;;;;;;;;;;5027413;28;20535;-59
2022/02/04 01:33:26;;;;;;;14.60;11.13;;;;;;;;;;5020484;28;20217;-59
2022/02/04 01:35:54;;;;;;;14.27;11.23;;;;;;;;;;5028566;28;20897;-59
2022/02/04 01:38:21;;;;;;;14.77;11.87;;;;;;;;;;4995153;28;20289;-59
2022/02/04 01:40:51;;;;;;;15.80;11.70;;;;;;;;;;5044408;28;20192;-59
2022/02/04 01:43:24;;;;;;;15.47;11.87;;;;;;;;;;5044278;28;20192;-59
2022/02/04 01:46:02;;;;;;;14.47;11.53;;;;;;;;;;5007239;28;20186;-59
2022/02/04 01:48:29;;;;;;;13.33;10.90;;;;;;;;;;5014782;28;20275;-59
2022/02/04 01:50:56;;;;;;;15.40;12.03;;;;;;;;;;5007385;28;20206;-59
2022/02/04 01:53:28;;;;;;;13.67;10.73;;;;;;;;;;5034887;28;20179;-60
2022/02/04 01:55:55;;;;;;;14.67;10.30;;;;;;;;;;5026472;28;20175;-60
2022/02/04 01:58:22;;;;;;;14.33;12.30;;;;;;;;;;5015514;28;20179;-59
2022/02/04 02:00:49;;;;;;;14.73;11.20;;;;;;;;;;5002388;28;20186;-59
2022/02/04 02:03:15;;;;;;;14.27;12.00;;;;;;;;;;5005366;28;20195;-59
2022/02/04 02:05:41;;;;;;;12.63;11.30;;;;;;;;;;5025142;28;20188;-60
2022/02/04 02:08:09;;;;;;;13.33;11.53;;;;;;;;;;5028430;28;20763;-59
2022/02/04 02:10:35;;;;;;;14.37;12.53;;;;;;;;;;4998518;28;20737;-59
2022/02/04 02:13:21;;;;;;;17.10;11.90;;;;;;;;;;5010694;28;20197;-60
2022/02/04 02:16:04;;;;;;;13.27;11.50;;;;;;;;;;5017681;28;20173;-59
2022/02/04 02:50:55;;;;;;;13.67;12.03;;;;;;;;;;5018758;28;20699;-60
2022/02/04 02:53:47;;;;;;;12.77;10.70;;;;;;;;;;5018701;28;20217;-59
2022/02/04 02:57:02;;;;;;;13.20;11.07;;;;;;;;;;5027809;28;20209;-59
2022/02/04 02:59:12;;;;;;;13.93;11.27;;;;;;;;;;5020803;28;20655;-60
2022/02/04 03:01:46;;;;;;;12.07;10.13;;;;;;;;;;5017785;28;20209;-59
2022/02/04 03:04:16;;;;;;;12.57;9.80;;;;;;;;;;5019362;28;20751;-59
2022/02/04 03:06:43;;;;;;;14.43;11.03;;;;;;;;;;5024447;28;20642;-60
2022/02/04 03:09:09;;;;;;;13.20;10.40;;;;;;;;;;5007199;28;20226;-60
2022/02/04 03:11:36;;;;;;;11.37;10.17;;;;;;;;;;5019059;28;20232;-59
2022/02/04 03:14:05;;;;;;;12.20;9.57;;;;;;;;;;5037983;28;20584;-59
2022/02/04 03:16:38;;;;;;;10.53;9.40;;;;;;;;;;5020382;28;20225;-59
2022/02/04 03:19:06;;;;;;;11.93;8.93;;;;;;;;;;5013750;28;20657;-60
2022/02/04 03:21:38;;;;;;;11.90;9.77;;;;;;;;;;5018052;28;20634;-60
2022/02/04 03:24:09;;;;;;;11.77;9.13;;;;;;;;;;5017784;28;20194;-59
2022/02/04 03:26:46;;;;;;;11.90;9.90;;;;;;;;;;5015201;28;20184;-59
2022/02/04 03:29:15;;;;;;;9.87;8.77;;;;;;;;;;5015193;28;20296;-59
2022/02/04 03:31:47;;;;;;;12.23;9.63;;;;;;;;;;5022711;28;20492;-60
2022/02/04 03:34:13;;;;;;;10.53;8.90;;;;;;;;;;5016336;28;20610;-59
2022/02/04 03:36:40;;;;;;;11.23;9.10;;;;;;;;;;5027516;28;20186;-59
2022/02/04 03:39:06;;;;;;;10.63;8.93;;;;;;;;;;5025496;28;20196;-59
2022/02/04 03:41:32;;;;;;;10.87;9.13;;;;;;;;;;5020309;28;20186;-59
2022/02/04 03:44:02;;;;;;;9.03;8.13;;;;;;;;;;5018508;28;20205;-59
2022/02/04 03:46:28;;;;;;;10.27;8.60;;;;;;;;;;5036879;28;20844;-60
2022/02/04 03:48:55;;;;;;;9.93;8.23;;;;;;;;;;4994340;28;20673;-59
2022/02/04 03:51:21;;;;;;;10.57;8.40;;;;;;;;;;5016238;28;20539;-59
2022/02/04 03:53:50;;;;;;;12.13;8.93;;;;;;;;;;5024942;28;20192;-59
2022/02/04 03:56:17;;;;;;;10.17;8.53;;;;;;;;;;5014546;28;20243;-60
2022/02/04 03:58:43;;;;;;;12.00;9.13;;;;;;;;;;5014934;28;20189;-59
2022/02/04 04:01:09;;;;;;;11.83;8.90;;;;;;;;;;5016897;28;20204;-59
2022/02/04 04:03:43;;;;;;;11.37;8.17;;;;;;;;;;5009000;28;20261;-59
2022/02/04 04:06:11;;;;;;;10.37;7.77;;;;;;;;;;5027748;28;20520;-59
2022/02/04 04:08:40;;;;;;;10.33;8.13;;;;;;;;;;5017426;28;20721;-59
2022/02/04 04:11:08;;;;;;;9.47;7.60;;;;;;;;;;5019728;28;20198;-59
2022/02/04 04:13:34;;;;;;;8.77;7.77;;;;;;;;;;5014469;28;20641;-60
2022/02/04 04:16:04;;;;;;;10.80;8.47;;;;;;;;;;5023540;28;20275;-60
2022/02/04 04:18:30;;;;;;;9.47;7.97;;;;;;;;;;4995975;28;20226;-59
2022/02/04 04:21:01;;;;;;;9.63;8.03;;;;;;;;;;5000307;28;20181;-59
2022/02/04 04:23:30;;;;;;;10.87;8.77;;;;;;;;;;4986851;28;20189;-59
2022/02/04 04:25:57;;;;;;;10.07;7.90;;;;;;;;;;4994729;28;20183;-59
2022/02/04 04:28:23;;;;;;;9.97;8.30;;;;;;;;;;4992407;28;20561;-60
2022/02/04 04:30:49;;;;;;;12.50;9.23;;;;;;;;;;5003144;28;20603;-59
2022/02/04 04:33:16;;;;;;;8.63;7.30;;;;;;;;;;5000517;28;20504;-59
2022/02/04 04:35:42;;;;;;;11.40;8.87;;;;;;;;;;5006382;28;20197;-60
2022/02/04 04:38:29;;;;;;;10.23;8.17;;;;;;;;;;5014730;28;20530;-59
2022/02/04 04:41:10;;;;;;;11.40;8.50;;;;;;;;;;5013684;28;20220;-60
2022/02/04 04:44:09;;;;;;;9.80;7.63;;;;;;;;;;4998752;28;20218;-59
2022/02/04 05:30:00;;;;;;;7.13;6.03;;;;;;;;;;5041843;28;20263;-59
2022/02/04 05:32:26;;;;;;;7.93;5.83;;;;;;;;;;5039412;28;20178;-58
2022/02/04 05:34:56;;;;;;;7.80;6.53;;;;;;;;;;5025441;28;20182;-60
2022/02/04 05:37:23;;;;;;;7.17;6.47;;;;;;;;;;5025111;28;20178;-59
2022/02/04 05:40:00;;;;;;;8.27;6.57;;;;;;;;;;5026393;28;20490;-59
2022/02/04 05:42:30;;;;;;;7.10;5.73;;;;;;;;;;5031397;28;20181;-61
2022/02/04 05:45:02;;;;;;;7.53;6.10;;;;;;;;;;5031750;28;20567;-59
2022/02/04 05:47:29;;;;;;;8.03;6.73;;;;;;;;;;5011491;28;20280;-59
2022/02/04 05:50:19;;;;;;;7.73;6.77;;;;;;;;;;5024342;28;20202;-60
2022/02/04 05:52:59;;;;;;;7.57;5.77;;;;;;;;;;5009834;28;20680;-59
2022/02/04 05:55:43;;;;;;;7.53;6.53;;;;;;;;;;5016907;28;20209;-59
2022/02/04 06:06:04;;;;;;;7.93;6.63;;;;;;;;;;5036653;28;20224;-60
2022/02/04 06:09:11;;;;;;;6.50;4.97;;;;;;;;;;5021270;28;20308;-60
2022/02/04 06:12:14;;;;;;;6.23;5.63;;;;;;;;;;5037961;28;20215;-60
2022/02/04 06:14:56;;;;;;;6.37;4.80;;;;;;;;;;5017786;28;20244;-59
2022/02/04 06:22:52;;;;;;;6.67;5.00;;;;;;;;;;5010724;28;20170;-60
2022/02/04 06:25:19;;;;;;;7.77;5.93;;;;;;;;;;5017060;28;20186;-59
2022/02/04 06:27:46;;;;;;;6.87;5.17;;;;;;;;;;5029829;28;20180;-60
2022/02/04 06:30:13;;;;;;;7.27;5.10;;;;;;;;;;5011527;28;20198;-60
2022/02/04 06:32:42;;;;;;;6.23;5.00;;;;;;;;;;5041497;28;20178;-59
2022/02/04 06:35:09;;;;;;;6.60;5.23;;;;;;;;;;5014848;28;20546;-59
2022/02/04 06:37:35;;;;;;;7.57;5.50;;;;;;;;;;5027259;28;20184;-60
2022/02/04 06:40:03;;;;;;;8.93;5.23;;;;;;;;;;5030041;28;20170;-59
2022/02/04 06:42:29;;;;;;;5.30;4.63;;;;;;;;;;5029324;28;20248;-60
2022/02/04 06:44:57;;;;;;;5.07;4.33;;;;;;;;;;5014755;28;20598;-59
2022/02/04 06:47:23;;;;;;;6.43;5.73;;;;;;;;;;5021516;28;20531;-60
2022/02/04 06:49:49;;;;;;;5.37;4.87;;;;;;;;;;5022785;28;20194;-59
2022/02/04 06:52:16;;;;;;;6.23;5.37;;;;;;;;;;5027738;28;20174;-60
2022/02/04 06:54:43;;;;;;;5.60;4.93;;;;;;;;;;5019348;28;20183;-59
2022/02/04 06:57:12;;;;;;;5.40;4.87;;;;;;;;;;5020573;28;20745;-60
2022/02/04 06:59:41;;;;;;;7.43;5.37;;;;;;;;;;5025547;28;20658;-59
2022/02/04 07:02:11;;;;;;;6.87;5.20;;;;;;;;;;5039299;28;20186;-60
2022/02/04 07:04:40;;;;;;;5.57;4.73;;;;;;;;;;5002748;28;20217;-60
2022/02/04 07:07:14;;;;;;;5.90;4.93;;;;;;;;;;5025633;28;20614;-59
2022/02/04 07:09:46;;;;;;;5.33;4.83;;;;;;;;;;5031396;28;20208;-60
2022/02/04 07:12:24;;;;;;;6.27;5.10;;;;;;;;;;5032927;28;20173;-60
2022/02/04 07:17:41;;;;;;;6.33;4.47;;;;;;;;;;5033735;28;20271;-60
2022/02/04 07:20:08;;;;;;;5.47;4.70;;;;;;;;;;5009277;28;20167;-59
2022/02/04 07:22:34;;;;;;;3.87;3.50;;;;;;;;;;5025747;28;20185;-59
2022/02/04 07:25:10;;;;;;;4.53;3.97;;;;;;;;;;5028079;28;20406;-60
2022/02/04 07:27:38;;;;;;;5.23;4.30;;;;;;;;;;5027862;28;20531;-60
2022/02/04 07:30:05;;;;;;;4.57;3.73;;;;;;;;;;5029216;28;20656;-59
2022/02/04 07:32:37;;;;;;;5.30;4.43;;;;;;;;;;5024743;28;20185;-60
2022/02/04 07:35:36;;;;;;;5.80;4.53;;;;;;;;;;5018086;28;20185;-60
2022/02/04 07:41:01;;;;;;;4.87;3.93;;;;;;;;;;5044079;28;20227;-59
2022/02/04 07:43:30;;;;;;;4.20;3.67;;;;;;;;;;5028213;28;20649;-59
2022/02/04 07:45:57;;;;;;;6.00;4.47;;;;;;;;;;4986119;28;20197;-60
2022/02/04 07:48:24;;;;;;;4.43;3.83;;;;;;;;;;5028657;28;20637;-59
2022/02/04 07:50:50;;;;;;;4.47;3.77;;;;;;;;;;5019499;28;20229;-60
2022/02/04 07:53:17;;;;;;;5.90;3.97;;;;;;;;;;5043436;28;20549;-59
2022/02/04 07:55:44;;;;;;;4.93;3.53;;;;;;;;;;5046626;28;20177;-60
2022/02/04 07:58:13;;;;;;;6.43;4.27;;;;;;;;;;5046717;28;20192;-60
2022/02/04 08:00:40;;;;;;;4.53;4.07;;;;;;;;;;5016501;28;20176;-59
2022/02/04 08:03:43;;;;;;;5.93;4.03;;;;;;;;;;5025801;28;20304;-60
2022/02/04 08:06:07;;;;;;;5.63;3.90;;;;;;;;;;5029560;28;20196;-60
2022/02/04 08:14:01;;;;;;;6.20;4.50;;;;;;;;;;5010881;28;20190;-59
2022/02/04 08:27:22;;;;;;;6.50;4.57;;;;;;;;;;5024496;28;20631;-59
2022/02/04 08:51:09;;;;;;;4.50;4.00;;;;;;;;;;5011645;28;20617;-59
2022/02/04 08:53:55;;;;;;;5.53;4.23;;;;;;;;;;5010553;28;20163;-60
2022/02/04 08:56:34;;;;;;;4.67;3.97;;;;;;;;;;5011265;28;20203;-58
2022/02/04 08:59:08;;;;;;;5.10;4.30;;;;;;;;;;5000752;28;20185;-60
2022/02/04 09:01:39;;;;;;;4.97;3.63;;;;;;;;;;5016254;28;20179;-59
2022/02/04 09:04:11;;;;;;;4.37;3.97;;;;;;;;;;5018433;28;20198;-60
2022/02/04 09:06:40;;;;;;;4.73;3.67;;;;;;;;;;5018680;28;20655;-59
2022/02/04 09:09:13;;;;;;;4.20;3.70;;;;;;;;;;5042221;28;20225;-59
2022/02/04 09:11:43;;;;;;;4.17;3.77;;;;;;;;;;5041481;28;20222;-59
2022/02/04 09:18:01;;;;;;;4.53;3.60;;;;;;;;;;5045164;28;20230;-59
2022/02/04 09:20:01;;;;;;;4.03;3.60;;;;;;;;;;5014630;28;20232;-59
2022/02/04 09:22:43;;;;;;;4.17;3.60;;;;;;;;;;5015532;28;20264;-59
2022/02/04 09:25:10;;;;;;;4.43;3.77;;;;;;;;;;5034446;28;20226;-59
2022/02/04 09:27:40;;;;;;;4.83;3.80;;;;;;;;;;5039988;28;20594;-59
2022/02/04 09:30:11;;;;;;;4.27;3.47;;;;;;;;;;5034546;28;20205;-60
2022/02/04 09:32:39;;;;;;;4.13;3.50;;;;;;;;;;5044902;28;20170;-59
2022/02/04 09:35:06;;;;;;;6.07;3.87;;;;;;;;;;5039317;28;20185;-60
2022/02/04 09:37:32;;;;;;;3.90;3.50;;;;;;;;;;5025253;28;20649;-59
2022/02/04 09:39:59;;;;;;;4.23;3.70;;;;;;;;;;5034243;28;20185;-60
2022/02/04 09:42:28;;;;;;;3.90;2.90;;;;;;;;;;5043198;28;20181;-60
2022/02/04 09:44:54;;;;;;;3.60;3.13;;;;;;;;;;5025636;28;20189;-60
2022/02/04 09:47:23;;;;;;;3.97;3.53;;;;;;;;;;5054018;28;20189;-59
2022/02/04 09:50:00;;;;;;;4.47;3.63;;;;;;;;;;5043069;28;20209;-59
2022/02/04 10:17:08;;;;;;;5.97;3.70;;;;;;;;;;5036062;28;20176;-59
2022/02/04 10:19:48;;;;;;;4.53;3.47;;;;;;;;;;5023079;28;20526;-59
2022/02/04 10:22:23;;;;;;;5.90;3.63;;;;;;;;;;5040435;28;20586;-59
2022/02/04 10:25:33;;;;;;;4.17;3.50;;;;;;;;;;5018568;28;20196;-59
2022/02/04 10:28:19;;;;;;;4.90;3.63;;;;;;;;;;4932335;29;20448;-60
2022/02/04 10:30:46;;;;;;;4.43;3.90;;;;;;;;;;4928159;29;20842;-60
2022/02/04 10:33:16;;;;;;;3.97;3.43;;;;;;;;;;4982065;28;20667;-60
2022/02/04 10:35:43;;;;;;;3.67;3.23;;;;;;;;;;5033316;28;20172;-60
2022/02/04 10:38:27;;;;;;;5.73;3.77;;;;;;;;;;5024597;28;20188;-60
2022/02/04 10:41:15;;;;;;;3.57;2.93;;;;;;;;;;5035601;28;20186;-60
2022/02/04 10:43:56;;;;;;;3.73;3.33;;;;;;;;;;5019890;28;20169;-60
2022/02/04 10:46:34;;;;;;;3.83;3.27;;;;;;;;;;5025292;28;20185;-60
2022/02/04 10:55:03;;;;;;;4.07;3.53;;;;;;;;;;5031571;28;20174;-59
2022/02/04 11:00:05;;;;;;;3.27;2.90;;;;;;;;;;5008756;28;20182;-60
2022/02/04 11:05:13;;;;;;;3.90;3.13;;;;;;;;;;5013008;28;20190;-60
2022/02/04 11:35:05;;;;;;;2.53;2.23;;;;;;;;;;5020447;28;20204;-61
2022/02/04 11:43:49;;;;;;;3.63;2.57;;;;;;;;;;5025970;28;20184;-60
2022/02/04 11:52:40;;;;;;;2.87;2.27;;;;;;;;;;5027415;28;20178;-60
2022/02/04 11:55:15;;;;;;;3.97;2.43;;;;;;;;;;5022428;28;20177;-60
2022/02/04 11:57:59;;;;;;;2.10;1.90;;;;;;;;;;5010164;28;20288;-59
2022/02/04 12:00:49;;;;;;;2.53;2.33;;;;;;;;;;5042648;28;20228;-60
2022/02/04 12:03:41;;;;;;;2.37;2.13;;;;;;;;;;5031306;28;20189;-60
2022/02/04 12:06:07;;;;;;;2.40;2.20;;;;;;;;;;5017238;28;20645;-59
2022/02/04 12:08:39;;;;;;;2.03;1.80;;;;;;;;;;5029459;28;20251;-60
2022/02/04 12:11:12;;;;;;;2.13;1.93;;;;;;;;;;5038844;28;20282;-59
2022/02/04 12:14:14;;;;;;;1.93;1.80;;;;;;;;;;5010265;28;20208;-60
2022/02/04 12:16:59;;;;;;;2.10;1.90;;;;;;;;;;5012571;28;20181;-60
2022/02/04 12:19:38;;;;;;;2.53;2.03;;;;;;;;;;5012008;28;20193;-60
2022/02/04 12:22:09;;;;;;;2.03;1.83;;;;;;;;;;5013372;28;20208;-60
2022/02/04 12:24:37;;;;;;;1.90;1.80;;;;;;;;;;5029701;28;20190;-60
2022/02/04 12:27:45;;;;;;;2.70;1.67;;;;;;;;;;5010890;28;20588;-60
2022/02/04 12:30:46;;;;;;;1.80;1.70;;;;;;;;;;5001498;28;20210;-61
2022/02/04 12:33:13;;;;;;;1.93;1.77;;;;;;;;;;4939948;28;20287;-60
2022/02/04 12:35:42;;;;;;;1.57;1.47;;;;;;;;;;5012715;28;20189;-60
2022/02/04 12:38:09;;;;;;;1.50;1.40;;;;;;;;;;5028015;28;20181;-60
2022/02/04 12:40:35;;;;;;;2.13;1.93;;;;;;;;;;5031442;28;20224;-60
2022/02/04 12:43:02;;;;;;;1.67;1.57;;;;;;;;;;5014346;28;20186;-60
2022/02/04 12:45:30;;;;;;;2.00;1.80;;;;;;;;;;5010583;28;20240;-60
2022/02/04 12:48:04;;;;;;;2.20;1.53;;;;;;;;;;5025823;28;20217;-60
2022/02/04 12:50:39;;;;;;;1.83;1.73;;;;;;;;;;5029777;28;20684;-60
2022/02/04 12:53:07;;;;;;;5.37;2.20;;;;;;;;;;5032023;28;20204;-60
2022/02/04 12:55:50;;;;;;;2.20;1.90;;;;;;;;;;5010923;28;20234;-60
2022/02/04 12:58:42;;;;;;;4.10;2.20;;;;;;;;;;5020369;28;20991;-59
2022/02/04 13:12:08;;;;;;;2.57;1.90;;;;;;;;;;5042819;28;20260;-59
2022/02/04 13:14:42;;;;;;;2.97;2.40;;;;;;;;;;4993420;28;20182;-60
2022/02/04 13:17:27;;;;;;;4.17;2.27;;;;;;;;;;5023626;28;20538;-60
2022/02/04 13:19:56;;;;;;;3.53;2.00;;;;;;;;;;5025918;28;20201;-60
2022/02/04 13:22:23;;;;;;;2.60;2.40;;;;;;;;;;5041350;28;20648;-60
2022/02/04 13:25:06;;;;;;;2.30;2.10;;;;;;;;;;5039333;28;20247;-60
2022/02/04 13:27:33;;;;;;;2.80;2.10;;;;;;;;;;5039951;28;20181;-59
2022/02/04 13:29:59;;;;;;;3.20;2.37;;;;;;;;;;5051422;28;20751;-60
2022/02/04 13:32:26;;;;;;;3.20;2.33;;;;;;;;;;5024932;28;20217;-60
2022/02/04 13:34:55;;;;;;;2.90;2.60;;;;;;;;;;5027456;28;20181;-59
2022/02/04 13:37:26;;;;;;;2.23;2.03;;;;;;;;;;5027102;28;20873;-59
2022/02/04 13:40:02;;;;;;;2.53;2.33;;;;;;;;;;5024061;28;20182;-60
2022/02/04 13:42:47;;;;;;;2.90;2.30;;;;;;;;;;5046448;28;20323;-60
2022/02/04 13:45:26;;;;;;;3.87;2.87;;;;;;;;;;5023677;28;20192;-60
2022/02/04 13:48:04;;;;;;;2.37;2.17;;;;;;;;;;5017090;28;20214;-59
2022/02/04 13:50:50;;;;;;;2.40;2.20;;;;;;;;;;5026725;28;20220;-60
2022/02/04 13:53:47;;;;;;;2.67;2.43;;;;;;;;;;5028664;28;20255;-60
2022/02/04 13:56:33;;;;;;;2.97;2.63;;;;;;;;;;5039886;28;20280;-60
2022/02/04 13:59:45;;;;;;;3.20;2.70;;;;;;;;;;5044925;28;20178;-60
2022/02/04 14:02:15;;;;;;;3.17;2.77;;;;;;;;;;5035874;28;20718;-60
2022/02/04 14:04:53;;;;;;;4.03;2.83;;;;;;;;;;5038057;28;20178;-60
2022/02/04 14:07:22;;;;;;;3.20;2.90;;;;;;;;;;5030901;28;20181;-60
2022/02/04 14:09:56;;;;;;;3.40;2.70;;;;;;;;;;5018992;28;20838;-60
2022/02/04 14:12:23;;;;;;;3.13;2.70;;;;;;;;;;5008147;28;20668;-60
2022/02/04 14:15:07;;;;;;;3.27;2.63;;;;;;;;;;5004246;28;20586;-60
2022/02/04 14:17:36;;;;;;;2.60;2.40;;;;;;;;;;4974967;28;20728;-60
2022/02/04 14:20:04;;;;;;;3.47;2.20;;;;;;;;;;4990405;28;20713;-60
2022/02/04 14:22:33;;;;;;;3.40;2.40;;;;;;;;;;4998954;28;20244;-60
2022/02/04 14:25:05;;;;;;;3.17;2.60;;;;;;;;;;5002573;28;20191;-60
2022/02/04 14:27:34;;;;;;;2.77;2.50;;;;;;;;;;5005006;28;20706;-60
2022/02/04 14:30:11;;;;;;;2.53;2.33;;;;;;;;;;5000913;28;20203;-60
2022/02/04 14:32:49;;;;;;;3.17;2.10;;;;;;;;;;5000333;28;20190;-60
2022/02/04 14:35:31;;;;;;;3.03;2.13;;;;;;;;;;4985024;28;20175;-60
2022/02/04 14:52:34;;;;;;;3.13;2.17;;;;;;;;;;5010345;28;20258;-60
2022/02/04 15:02:49;;;;;;;4.47;1.83;;;;;;;;;;5007769;28;20752;-59
2022/02/04 15:05:19;;;;;;;1.87;1.60;;;;;;;;;;5022571;28;20173;-60
2022/02/04 15:07:48;;;;;;;2.97;2.20;;;;;;;;;;5018680;28;20178;-60
2022/02/04 15:10:26;;;;;;;2.23;2.00;;;;;;;;;;5064364;28;20307;-60
2022/02/04 15:12:53;;;;;;;2.27;1.70;;;;;;;;;;5039962;28;20182;-60
2022/02/04 15:15:19;;;;;;;2.13;1.77;;;;;;;;;;5023066;28;20185;-60
2022/02/04 15:17:46;;;;;;;3.47;1.87;;;;;;;;;;5027479;28;20174;-60
2022/02/04 15:20:12;;;;;;;2.30;2.10;;;;;;;;;;5030162;28;20544;-60
2022/02/04 15:22:43;;;;;;;2.63;2.00;;;;;;;;;;5039486;28;20178;-60
2022/02/04 15:25:17;;;;;;;2.53;1.77;;;;;;;;;;5042348;28;20310;-60
2022/02/04 15:27:52;;;;;;;2.13;1.90;;;;;;;;;;5047326;28;20208;-60
2022/02/04 15:30:25;;;;;;;2.77;1.80;;;;;;;;;;5031470;28;20499;-59
2022/02/04 15:32:51;;;;;;;3.40;1.83;;;;;;;;;;5018113;28;20229;-60
2022/02/04 15:35:20;;;;;;;2.47;2.27;;;;;;;;;;5037962;28;20162;-60
2022/02/04 15:37:48;;;;;;;3.13;2.37;;;;;;;;;;5025500;28;20201;-59
2022/02/04 15:40:42;;;;;;;3.03;2.37;;;;;;;;;;5037232;28;20261;-60
2022/02/04 15:43:06;;;;;;;2.90;2.00;;;;;;;;;;5020832;28;20193;-60
2022/02/04 16:02:32;;;;;;;4.87;2.50;;;;;;;;;;5042498;28;20173;-56
2022/02/04 16:04:58;;;;;;;13.77;2.50;;;;;;;;;;5019790;28;20219;-58
2022/02/04 16:07:41;;;;;;;4.50;3.00;;;;;;;;;;5015552;28;20179;-58
2022/02/04 16:10:26;;;;;;;4.87;2.40;;;;;;;;;;5035326;28;20216;-58
2022/02/04 16:13:08;;;;;;;2.60;2.40;;;;;;;;;;5030427;28;20169;-58
2022/02/04 16:18:27;;;;;;;2.40;2.20;;;;;;;;;;5046505;28;20159;-59
2022/02/04 16:21:10;;;;;;;3.00;2.30;;;;;;;;;;5032762;28;20184;-58
2022/02/04 16:28:58;;;;;;;2.93;2.10;;;;;;;;;;5029531;28;20613;-57
2022/02/04 16:31:26;;;;;;;2.57;2.30;;;;;;;;;;5047335;28;20202;-58
2022/02/04 16:33:56;;;;;;;3.50;2.67;;;;;;;;;;5046839;28;20185;-58
2022/02/04 16:36:25;;;;;;;3.33;2.47;;;;;;;;;;5029299;28;20281;-58
2022/02/04 16:38:53;;;;;;;2.80;2.50;;;;;;;;;;5033122;28;20636;-58
2022/02/04 16:41:26;;;;;;;2.30;1.70;;;;;;;;;;5009396;28;20186;-57
2022/02/04 16:44:02;;;;;;;2.30;2.10;;;;;;;;;;5030132;28;20181;-58
2022/02/04 16:46:28;;;;;;;1.40;1.30;;;;;;;;;;5046390;28;20263;-58
2022/02/04 16:48:56;;;;;;;1.50;1.40;;;;;;;;;;5025248;28;20477;-57
2022/02/04 16:51:25;;;;;;;5.43;1.30;;;;;;;;;;5008364;28;20209;-57
2022/02/04 16:53:51;;;;;;;1.33;1.23;;;;;;;;;;5030672;28;20240;-57
2022/02/04 16:56:21;;;;;;;1.50;1.40;;;;;;;;;;5031390;28;20195;-57
2022/02/04 16:58:53;;;;;;;1.17;1.00;;;;;;;;;;5042022;28;20509;-57
2022/02/04 17:01:20;;;;;;;1.50;1.40;;;;;;;;;;5045549;28;20205;-57
2022/02/04 17:03:46;;;;;;;1.30;1.20;;;;;;;;;;5016906;28;20727;-57
2022/02/04 17:06:15;;;;;;;1.40;1.30;;;;;;;;;;5036632;28;20223;-57
2022/02/04 17:08:47;;;;;;;1.40;1.30;;;;;;;;;;5019273;28;20222;-57
2022/02/04 17:11:19;;;;;;;1.43;1.33;;;;;;;;;;4993452;28;20202;-57
2022/02/04 17:13:45;;;;;;;1.30;1.20;;;;;;;;;;4993783;28;20219;-56
2022/02/04 17:16:16;;;;;;;1.67;1.57;;;;;;;;;;4993412;28;20657;-57
2022/02/04 17:18:44;;;;;;;2.27;2.17;;;;;;;;;;4991564;28;20251;-56
2022/02/04 17:21:15;;;;;;;1.93;1.80;;;;;;;;;;4976629;28;20206;-56
2022/02/04 17:23:51;;;;;;;2.10;2.00;;;;;;;;;;4995458;28;20218;-55
2022/02/04 17:26:22;;;;;;;2.40;2.20;;;;;;;;;;5010578;28;20220;-56
2022/02/04 17:28:48;;;;;;;2.33;2.13;;;;;;;;;;4992023;28;20198;-56
2022/02/04 17:31:17;;;;;;;2.60;2.40;;;;;;;;;;5001025;28;20202;-56
2022/02/04 17:33:43;;;;;;;2.33;2.23;;;;;;;;;;5028487;28;20535;-56
2022/02/04 17:36:12;;;;;;;2.63;2.43;;;;;;;;;;5007447;28;20216;-57
2022/02/04 17:38:39;;;;;;;2.60;2.40;;;;;;;;;;4994851;28;20188;-57
2022/02/04 17:41:08;;;;;;;2.47;2.27;;;;;;;;;;5007348;28;20179;-57
2022/02/04 17:43:34;;;;;;;4.23;2.70;;;;;;;;;;4999744;28;20926;-56
2022/02/04 17:46:04;;;;;;;2.60;2.40;;;;;;;;;;4996276;28;20244;-56
2022/02/04 17:48:47;;;;;;;2.93;2.73;;;;;;;;;;4990614;28;20739;-57
2022/02/04 17:51:36;;;;;;;2.30;2.10;;;;;;;;;;4992140;28;20198;-56
2022/02/04 17:54:07;;;;;;;2.70;2.50;;;;;;;;;;5011037;28;20165;-57
2022/02/04 17:56:50;;;;;;;2.83;2.20;;;;;;;;;;5023325;28;20204;-57
2022/02/04 17:59:33;;;;;;;2.43;2.23;;;;;;;;;;4997741;28;20577;-57
2022/02/04 18:07:36;;;;;;;2.57;2.13;;;;;;;;;;4989814;28;20186;-57
2022/02/04 18:10:04;;;;;;;1.90;1.80;;;;;;;;;;5029246;28;20304;-56
2022/02/04 18:12:35;;;;;;;2.10;1.90;;;;;;;;;;5019431;28;20605;-56
2022/02/04 18:15:03;;;;;;;2.37;2.20;;;;;;;;;;5041634;28;20185;-57
2022/02/04 18:17:29;;;;;;;2.10;1.90;;;;;;;;;;5022194;28;20180;-57
2022/02/04 18:20:02;;;;;;;2.07;1.87;;;;;;;;;;5026175;28;20228;-57
2022/02/04 18:22:29;;;;;;;2.30;2.00;;;;;;;;;;5024887;28;20246;-57
2022/02/04 18:24:58;;;;;;;1.77;1.67;;;;;;;;;;5026792;28;20225;-56
2022/02/04 18:27:27;;;;;;;1.90;1.80;;;;;;;;;;5008841;28;20637;-56
2022/02/04 18:29:56;;;;;;;1.87;1.63;;;;;;;;;;5027537;28;20563;-56
2022/02/04 18:32:24;;;;;;;2.13;1.93;;;;;;;;;;5027836;28;20189;-57
2022/02/04 18:34:51;;;;;;;2.23;1.80;;;;;;;;;;5011023;28;20637;-57
2022/02/04 18:37:18;;;;;;;3.20;1.47;;;;;;;;;;5026005;28;20538;-57
2022/02/04 18:45:20;;;;;;;1.60;1.27;;;;;;;;;;5025902;28;20575;-56
2022/02/04 18:47:56;;;;;;;3.10;1.73;;;;;;;;;;5012812;28;20238;-56
2022/02/04 18:53:24;;;;;;;2.10;1.90;;;;;;;;;;5014173;28;20538;-56
2022/02/04 18:56:15;;;;;;;2.60;1.80;;;;;;;;;;5030272;28;20162;-57
2022/02/04 18:58:42;;;;;;;1.67;1.57;;;;;;;;;;5013050;28;20496;-56
2022/02/04 19:01:16;;;;;;;1.77;1.40;;;;;;;;;;5009609;28;20220;-59
2022/02/04 19:03:55;;;;;;;1.53;1.40;;;;;;;;;;5008838;28;20632;-58
2022/02/04 19:06:27;;;;;;;1.67;1.40;;;;;;;;;;5027016;28;20181;-58
2022/02/04 19:09:04;;;;;;;2.90;1.20;;;;;;;;;;4998676;28;20226;-58
2022/02/04 19:11:38;;;;;;;1.63;1.53;;;;;;;;;;5004002;28;20209;-58
2022/02/04 19:17:11;;;;;;;2.17;1.97;;;;;;;;;;5004178;28;20187;-58
2022/02/04 19:19:49;;;;;;;2.83;1.50;;;;;;;;;;5005098;28;20575;-58
2022/02/04 19:22:34;;;;;;;1.97;1.60;;;;;;;;;;4988930;28;20206;-58
2022/02/04 19:25:05;;;;;;;2.10;1.90;;;;;;;;;;4991199;28;20550;-58
2022/02/04 19:27:34;;;;;;;1.90;1.77;;;;;;;;;;4988852;28;20194;-58
2022/02/04 19:30:11;;;;;;;2.70;1.70;;;;;;;;;;4985577;28;20689;-58
2022/02/04 19:32:39;;;;;;;2.17;1.80;;;;;;;;;;5013637;28;20209;-58
2022/02/04 19:35:06;;;;;;;4.87;1.80;;;;;;;;;;5007595;28;20706;-58
2022/02/04 19:37:35;;;;;;;5.03;2.00;;;;;;;;;;5010204;28;20181;-58
2022/02/04 19:40:06;;;;;;;9.10;2.63;;;;;;;;;;4993635;28;20236;-58
2022/02/04 19:42:36;;;;;;;3.20;1.87;;;;;;;;;;4991199;28;20218;-57
2022/02/04 19:45:11;;;;;;;3.43;2.37;;;;;;;;;;4996837;28;20184;-58
2022/02/04 19:47:49;;;;;;;3.00;2.53;;;;;;;;;;4991888;28;20181;-58
2022/02/04 19:50:43;;;;;;;2.60;2.40;;;;;;;;;;4991460;28;20205;-58
2022/02/04 20:25:56;;;;;;;5.37;3.03;;;;;;;;;;5035571;28;20577;-58
2022/02/04 20:28:24;;;;;;;8.97;3.40;;;;;;;;;;5042462;28;20205;-59
2022/02/04 20:30:53;;;;;;;8.67;3.70;;;;;;;;;;5012883;28;20700;-58
2022/02/04 20:33:19;;;;;;;5.17;3.63;;;;;;;;;;5027616;28;20174;-59
2022/02/04 20:35:46;;;;;;;6.57;3.20;;;;;;;;;;5032142;28;20169;-58
2022/02/04 20:38:20;;;;;;;3.67;2.77;;;;;;;;;;5047144;28;20428;-59
2022/02/04 20:40:54;;;;;;;10.13;3.20;;;;;;;;;;5007321;28;20246;-58
2022/02/04 20:43:25;;;;;;;7.60;3.33;;;;;;;;;;5003577;28;20249;-59
2022/02/04 20:45:51;;;;;;;5.67;3.17;;;;;;;;;;5005923;28;20251;-58
2022/02/04 20:48:18;;;;;;;5.83;3.13;;;;;;;;;;5010343;28;20185;-58
2022/02/04 20:50:44;;;;;;;4.83;3.50;;;;;;;;;;5027806;28;20203;-58
2022/02/04 20:53:10;;;;;;;4.80;3.60;;;;;;;;;;5010102;28;20181;-58
2022/02/04 20:55:38;;;;;;;4.93;3.33;;;;;;;;;;5032262;28;20177;-58
2022/02/04 20:58:08;;;;;;;5.13;3.83;;;;;;;;;;5037873;28;20201;-58
2022/02/04 21:00:36;;;;;;;7.27;3.33;;;;;;;;;;5024563;28;20186;-58
2022/02/04 21:03:09;;;;;;;9.60;4.00;;;;;;;;;;5053850;28;20205;-58
2022/02/04 21:13:53;;;;;;;7.60;3.60;;;;;;;;;;5025898;28;20216;-58
2022/02/04 21:16:30;;;;;;;5.43;3.37;;;;;;;;;;5025219;28;20653;-58
2022/02/04 21:19:01;;;;;;;4.23;3.13;;;;;;;;;;5022052;28;20202;-58
2022/02/04 21:21:27;;;;;;;6.13;3.87;;;;;;;;;;5027206;28;20585;-58
2022/02/04 21:23:57;;;;;;;8.30;4.40;;;;;;;;;;5026536;28;20198;-58
2022/02/04 21:26:29;;;;;;;9.87;3.53;;;;;;;;;;5024747;28;20196;-58